ETD9781 OMAA-VGHS
Flight info
| Callsign | ETD9781 |
|---|---|
| Flight time | 4h 14m |
| Altitude | 33000 |
| Route | KANIP N318 GEVED N881 RASKI L639 BPL A791 CEA A462 DAC |
| Aircraft | B77L/H-SDE1E2E3FGHIJ2J3J4J5M1RWXYZ/LB1D1 |
Departure
| Time | 2026-05-07 17:30 |
|---|---|
| Airport | Zayed International Airport (OMAA) |
Arrival
| Time | 2026-05-07 21:44 |
|---|---|
| Airport | Hazrat Shahjalal International Airport (VGHS) |
| Time | Latitude | Longitude | Altitude | Speed | Heading |
|---|---|---|---|---|---|
| 2026-05-07 17:01 | 24.42210 | 54.65631 | 81 ft | 0 kts | 218° |
| 2026-05-07 17:21 | 24.42213 | 54.65633 | 86 ft | 3 kts | 218° |
| 2026-05-07 17:21 | 24.42234 | 54.65651 | 86 ft | 4 kts | 218° |
| 2026-05-07 17:22 | 24.42251 | 54.65666 | 85 ft | 4 kts | 212° |
| 2026-05-07 17:22 | 24.42266 | 54.65674 | 86 ft | 4 kts | 186° |
| 2026-05-07 17:22 | 24.42287 | 54.65668 | 86 ft | 3 kts | 128° |
| 2026-05-07 17:22 | 24.42302 | 54.65645 | 85 ft | 3 kts | 128° |
| 2026-05-07 17:23 | 24.42305 | 54.65641 | 86 ft | 0 kts | 128° |
| 2026-05-07 17:26 | 24.42294 | 54.65657 | 86 ft | 10 kts | 128° |
| 2026-05-07 17:26 | 24.42242 | 54.65731 | 85 ft | 13 kts | 126° |
| 2026-05-07 17:26 | 24.42253 | 54.65822 | 82 ft | 13 kts | 77° |
| 2026-05-07 17:26 | 24.42218 | 54.65909 | 83 ft | 13 kts | 127° |
| 2026-05-07 17:27 | 24.42163 | 54.65988 | 86 ft | 13 kts | 128° |
| 2026-05-07 17:27 | 24.42108 | 54.66065 | 86 ft | 13 kts | 128° |
| 2026-05-07 17:27 | 24.42053 | 54.66143 | 85 ft | 13 kts | 128° |
| 2026-05-07 17:27 | 24.41993 | 54.66225 | 85 ft | 17 kts | 128° |
| 2026-05-07 17:28 | 24.41968 | 54.66377 | 84 ft | 25 kts | 70° |
| 2026-05-07 17:28 | 24.42033 | 54.66553 | 83 ft | 25 kts | 65° |
| 2026-05-07 17:28 | 24.42142 | 54.66678 | 84 ft | 8 kts | 37° |
| 2026-05-07 17:28 | 24.42188 | 54.66691 | 70 ft | 8 kts | 326° |
| 2026-05-07 17:29 | 24.42227 | 54.66640 | 83 ft | 15 kts | 307° |
| 2026-05-07 17:29 | 24.42413 | 54.66377 | 85 ft | 80 kts | 308° |
| 2026-05-07 17:29 | 24.42901 | 54.65689 | 84 ft | 147 kts | 308° |
| 2026-05-07 17:29 | 24.43639 | 54.64645 | 122 ft | 193 kts | 308° |
| 2026-05-07 17:30 | 24.44498 | 54.63445 | 557 ft | 207 kts | 309° |
| 2026-05-07 17:30 | 24.45429 | 54.62143 | 979 ft | 222 kts | 308° |
| 2026-05-07 17:30 | 24.46409 | 54.60765 | 1452 ft | 238 kts | 308° |
| 2026-05-07 17:30 | 24.47461 | 54.59280 | 1807 ft | 253 kts | 308° |
| 2026-05-07 17:31 | 24.48558 | 54.57726 | 2334 ft | 261 kts | 307° |
| 2026-05-07 17:31 | 24.49675 | 54.56144 | 3033 ft | 263 kts | 307° |
| 2026-05-07 17:31 | 24.50807 | 54.54547 | 3661 ft | 268 kts | 307° |
| 2026-05-07 17:31 | 24.51960 | 54.52917 | 4272 ft | 273 kts | 307° |
| 2026-05-07 17:32 | 24.53259 | 54.51389 | 4735 ft | 278 kts | 328° |
| 2026-05-07 17:32 | 24.55099 | 54.50759 | 5258 ft | 282 kts | 2° |
| 2026-05-07 17:32 | 24.56968 | 54.51317 | 5906 ft | 282 kts | 31° |
| 2026-05-07 17:32 | 24.58450 | 54.52723 | 6521 ft | 284 kts | 52° |
| 2026-05-07 17:33 | 24.59481 | 54.54582 | 7086 ft | 287 kts | 63° |
| 2026-05-07 17:33 | 24.60389 | 54.56523 | 7659 ft | 291 kts | 63° |
| 2026-05-07 17:33 | 24.61323 | 54.58510 | 8277 ft | 294 kts | 63° |
| 2026-05-07 17:33 | 24.62274 | 54.60514 | 8925 ft | 296 kts | 63° |
| 2026-05-07 17:34 | 24.63087 | 54.62595 | 9410 ft | 299 kts | 81° |
| 2026-05-07 17:34 | 24.63010 | 54.64872 | 9864 ft | 299 kts | 105° |
| 2026-05-07 17:34 | 24.62471 | 54.67096 | 10327 ft | 306 kts | 105° |
| 2026-05-07 17:34 | 24.61926 | 54.69440 | 10505 ft | 327 kts | 105° |
| 2026-05-07 17:35 | 24.61351 | 54.71947 | 10668 ft | 349 kts | 105° |
| 2026-05-07 17:35 | 24.60701 | 54.74595 | 10813 ft | 368 kts | 110° |
| 2026-05-07 17:35 | 24.59579 | 54.77136 | 11123 ft | 381 kts | 124° |
| 2026-05-07 17:35 | 24.57906 | 54.79415 | 11697 ft | 386 kts | 136° |
| 2026-05-07 17:36 | 24.55939 | 54.81425 | 12582 ft | 385 kts | 138° |
| 2026-05-07 17:36 | 24.53969 | 54.83438 | 13334 ft | 388 kts | 137° |
| 2026-05-07 17:36 | 24.51996 | 54.85498 | 13986 ft | 393 kts | 136° |
| 2026-05-07 17:36 | 24.50011 | 54.87588 | 14638 ft | 397 kts | 136° |
| 2026-05-07 17:37 | 24.48011 | 54.89698 | 15267 ft | 401 kts | 136° |
| 2026-05-07 17:37 | 24.45992 | 54.91828 | 15943 ft | 404 kts | 136° |
| 2026-05-07 17:37 | 24.43956 | 54.93975 | 16584 ft | 407 kts | 136° |
| 2026-05-07 17:37 | 24.41905 | 54.96137 | 17248 ft | 410 kts | 136° |
| 2026-05-07 17:38 | 24.39859 | 54.98293 | 17813 ft | 416 kts | 136° |
| 2026-05-07 17:38 | 24.37757 | 55.00505 | 18350 ft | 420 kts | 136° |
| 2026-05-07 17:38 | 24.35627 | 55.02745 | 18816 ft | 426 kts | 135° |
| 2026-05-07 17:38 | 24.33535 | 55.05072 | 19306 ft | 429 kts | 130° |
| 2026-05-07 17:39 | 24.31675 | 55.07643 | 19856 ft | 432 kts | 125° |
| 2026-05-07 17:39 | 24.30061 | 55.10424 | 20370 ft | 434 kts | 119° |
| 2026-05-07 17:39 | 24.28607 | 55.13306 | 20798 ft | 439 kts | 119° |
| 2026-05-07 17:39 | 24.27123 | 55.16262 | 21211 ft | 445 kts | 119° |
| 2026-05-07 17:40 | 24.25615 | 55.19249 | 21689 ft | 449 kts | 120° |
| 2026-05-07 17:40 | 24.24092 | 55.22243 | 22174 ft | 452 kts | 120° |
| 2026-05-07 17:40 | 24.22546 | 55.25262 | 22622 ft | 456 kts | 120° |
| 2026-05-07 17:40 | 24.20985 | 55.28303 | 23029 ft | 461 kts | 120° |
| 2026-05-07 17:41 | 24.19403 | 55.31379 | 23431 ft | 465 kts | 120° |
| 2026-05-07 17:41 | 24.17828 | 55.34486 | 23835 ft | 467 kts | 118° |
| 2026-05-07 17:41 | 24.16463 | 55.37731 | 24228 ft | 470 kts | 113° |
| 2026-05-07 17:41 | 24.15206 | 55.41054 | 24553 ft | 474 kts | 113° |
| 2026-05-07 17:42 | 24.13942 | 55.44412 | 24868 ft | 478 kts | 113° |
| 2026-05-07 17:42 | 24.12676 | 55.47745 | 25201 ft | 482 kts | 113° |
| 2026-05-07 17:42 | 24.11375 | 55.51138 | 25551 ft | 485 kts | 114° |
| 2026-05-07 17:42 | 24.10057 | 55.54549 | 25863 ft | 489 kts | 114° |
| 2026-05-07 17:43 | 24.08724 | 55.57988 | 26173 ft | 493 kts | 114° |
| 2026-05-07 17:43 | 24.07380 | 55.61454 | 26481 ft | 496 kts | 114° |
| 2026-05-07 17:43 | 24.06009 | 55.64930 | 26806 ft | 499 kts | 116° |
| 2026-05-07 17:43 | 24.04449 | 55.68329 | 27127 ft | 501 kts | 118° |
| 2026-05-07 17:44 | 24.02817 | 55.71719 | 27430 ft | 505 kts | 119° |
| 2026-05-07 17:44 | 24.01169 | 55.75120 | 27747 ft | 508 kts | 119° |
| 2026-05-07 17:44 | 23.99511 | 55.78551 | 28050 ft | 511 kts | 119° |
| 2026-05-07 17:44 | 23.97850 | 55.82008 | 28385 ft | 514 kts | 118° |
| 2026-05-07 17:45 | 23.96184 | 55.85487 | 28678 ft | 517 kts | 118° |
| 2026-05-07 17:45 | 23.94515 | 55.88986 | 28960 ft | 520 kts | 118° |
| 2026-05-07 17:45 | 23.92856 | 55.92460 | 29217 ft | 523 kts | 118° |
| 2026-05-07 17:45 | 23.91164 | 55.96001 | 29491 ft | 526 kts | 118° |
| 2026-05-07 17:46 | 23.89466 | 55.99549 | 29830 ft | 527 kts | 119° |
| 2026-05-07 17:46 | 23.87766 | 56.03094 | 30208 ft | 526 kts | 119° |
| 2026-05-07 17:46 | 23.86070 | 56.06631 | 30620 ft | 524 kts | 119° |
| 2026-05-07 17:46 | 23.84382 | 56.10149 | 31094 ft | 521 kts | 119° |
| 2026-05-07 17:47 | 23.82704 | 56.13642 | 31537 ft | 518 kts | 119° |
| 2026-05-07 17:47 | 23.81033 | 56.17121 | 31934 ft | 517 kts | 119° |
| 2026-05-07 17:47 | 23.79362 | 56.20597 | 32323 ft | 516 kts | 119° |
| 2026-05-07 17:47 | 23.77695 | 56.24064 | 32716 ft | 514 kts | 119° |
| 2026-05-07 17:48 | 23.76050 | 56.27481 | 32934 ft | 517 kts | 119° |
| 2026-05-07 17:48 | 23.74365 | 56.30978 | 32903 ft | 519 kts | 119° |
| 2026-05-07 17:48 | 23.71018 | 56.37921 | 32891 ft | 513 kts | 119° |
| 2026-05-07 17:49 | 23.67696 | 56.44802 | 32901 ft | 512 kts | 119° |
| 2026-05-07 17:49 | 23.64376 | 56.51667 | 32906 ft | 511 kts | 119° |
| 2026-05-07 17:50 | 23.61057 | 56.58520 | 32909 ft | 511 kts | 119° |
| 2026-05-07 17:50 | 23.57756 | 56.65328 | 32906 ft | 511 kts | 119° |
| 2026-05-07 17:51 | 23.54422 | 56.72195 | 32911 ft | 512 kts | 119° |
| 2026-05-07 17:51 | 23.51078 | 56.79071 | 32907 ft | 513 kts | 119° |
| 2026-05-07 17:52 | 23.47729 | 56.85950 | 32911 ft | 513 kts | 119° |
| 2026-05-07 17:52 | 23.44380 | 56.92820 | 32906 ft | 513 kts | 119° |
| 2026-05-07 17:53 | 23.41028 | 56.99685 | 32920 ft | 513 kts | 119° |
| 2026-05-07 17:53 | 23.37694 | 57.06504 | 32916 ft | 513 kts | 119° |
| 2026-05-07 17:54 | 23.34463 | 57.13444 | 32923 ft | 514 kts | 117° |
| 2026-05-07 17:54 | 23.31343 | 57.20442 | 32913 ft | 514 kts | 117° |
| 2026-05-07 17:55 | 23.28205 | 57.27440 | 32937 ft | 513 kts | 117° |
| 2026-05-07 17:55 | 23.25049 | 57.34403 | 32928 ft | 512 kts | 117° |
| 2026-05-07 17:56 | 23.21904 | 57.41313 | 32941 ft | 512 kts | 117° |
| 2026-05-07 17:56 | 23.18738 | 57.48259 | 32944 ft | 512 kts | 117° |
| 2026-05-07 17:57 | 23.16103 | 57.54041 | 32923 ft | 513 kts | 117° |
| 2026-05-07 17:57 | 23.12397 | 57.62159 | 32923 ft | 513 kts | 117° |
| 2026-05-07 17:58 | 23.09245 | 57.69052 | 32922 ft | 513 kts | 117° |
| 2026-05-07 17:58 | 23.06069 | 57.75990 | 32905 ft | 513 kts | 117° |
| 2026-05-07 17:59 | 23.03126 | 57.83042 | 32871 ft | 514 kts | 108° |
| 2026-05-07 17:59 | 23.01727 | 57.90663 | 32890 ft | 515 kts | 94° |
| 2026-05-07 18:00 | 23.01704 | 57.98396 | 32874 ft | 516 kts | 89° |
| 2026-05-07 18:00 | 23.01800 | 58.06194 | 32869 ft | 516 kts | 90° |
| 2026-05-07 18:01 | 23.01827 | 58.14009 | 32867 ft | 517 kts | 90° |
| 2026-05-07 18:01 | 23.01819 | 58.21820 | 32854 ft | 517 kts | 90° |
| 2026-05-07 18:02 | 23.01806 | 58.33516 | 32854 ft | 518 kts | 90° |
| 2026-05-07 18:03 | 23.01841 | 58.41349 | 32844 ft | 519 kts | 89° |
| 2026-05-07 18:03 | 23.02126 | 58.49186 | 32847 ft | 519 kts | 87° |
| 2026-05-07 18:04 | 23.02449 | 58.57021 | 32844 ft | 519 kts | 88° |
| 2026-05-07 18:04 | 23.02725 | 58.64846 | 32835 ft | 518 kts | 88° |
| 2026-05-07 18:05 | 23.02976 | 58.72662 | 32811 ft | 518 kts | 88° |
| 2026-05-07 18:05 | 23.03221 | 58.80418 | 32822 ft | 517 kts | 88° |
| 2026-05-07 18:06 | 23.03468 | 58.88224 | 32803 ft | 517 kts | 88° |
| 2026-05-07 18:06 | 23.03713 | 58.96040 | 32799 ft | 517 kts | 88° |
| 2026-05-07 18:07 | 23.03949 | 59.03839 | 32815 ft | 517 kts | 88° |
| 2026-05-07 18:07 | 23.04176 | 59.11651 | 32804 ft | 517 kts | 88° |
| 2026-05-07 18:08 | 23.04400 | 59.19463 | 32791 ft | 517 kts | 88° |
| 2026-05-07 18:08 | 23.04620 | 59.27213 | 32775 ft | 517 kts | 88° |
| 2026-05-07 18:09 | 23.04838 | 59.35022 | 32776 ft | 517 kts | 88° |
| 2026-05-07 18:09 | 23.05019 | 59.42825 | 32761 ft | 517 kts | 89° |
| 2026-05-07 18:10 | 23.05114 | 59.49311 | 32757 ft | 517 kts | 89° |
| 2026-05-07 18:10 | 23.05222 | 59.57130 | 32759 ft | 517 kts | 89° |
| 2026-05-07 18:11 | 23.05339 | 59.64940 | 32756 ft | 517 kts | 89° |
| 2026-05-07 18:11 | 23.05456 | 59.72759 | 32760 ft | 517 kts | 89° |
| 2026-05-07 18:12 | 23.05568 | 59.80572 | 32759 ft | 517 kts | 89° |
| 2026-05-07 18:12 | 23.05677 | 59.88352 | 32765 ft | 517 kts | 89° |
| 2026-05-07 18:13 | 23.05775 | 59.96171 | 32762 ft | 517 kts | 89° |
| 2026-05-07 18:13 | 23.05861 | 60.03978 | 32765 ft | 517 kts | 89° |
| 2026-05-07 18:14 | 23.05943 | 60.11796 | 32769 ft | 517 kts | 89° |
| 2026-05-07 18:14 | 23.06022 | 60.19566 | 32771 ft | 517 kts | 89° |
| 2026-05-07 18:15 | 23.06099 | 60.27373 | 32769 ft | 517 kts | 89° |
| 2026-05-07 18:15 | 23.06172 | 60.35195 | 32769 ft | 517 kts | 89° |
| 2026-05-07 18:16 | 23.06240 | 60.43002 | 32768 ft | 517 kts | 89° |
| 2026-05-07 18:16 | 23.06305 | 60.50767 | 32766 ft | 517 kts | 89° |
| 2026-05-07 18:17 | 23.06367 | 60.58578 | 32768 ft | 517 kts | 89° |
| 2026-05-07 18:17 | 23.06426 | 60.66384 | 32769 ft | 517 kts | 89° |
| 2026-05-07 18:18 | 23.06488 | 60.74193 | 32767 ft | 517 kts | 89° |
| 2026-05-07 18:18 | 23.06549 | 60.82007 | 32773 ft | 517 kts | 89° |
| 2026-05-07 18:19 | 23.06606 | 60.89821 | 32773 ft | 517 kts | 89° |
| 2026-05-07 18:19 | 23.06657 | 60.97593 | 32768 ft | 517 kts | 89° |
| 2026-05-07 18:20 | 23.06705 | 61.05409 | 32768 ft | 517 kts | 89° |
| 2026-05-07 18:20 | 23.06749 | 61.13217 | 32774 ft | 517 kts | 89° |
| 2026-05-07 18:21 | 23.06789 | 61.20975 | 32770 ft | 517 kts | 89° |
| 2026-05-07 18:21 | 23.06825 | 61.28777 | 32772 ft | 516 kts | 89° |
| 2026-05-07 18:22 | 23.06858 | 61.36584 | 32774 ft | 516 kts | 89° |
| 2026-05-07 18:22 | 23.06887 | 61.44347 | 32774 ft | 516 kts | 89° |
| 2026-05-07 18:23 | 23.06915 | 61.52148 | 32773 ft | 516 kts | 89° |
| 2026-05-07 18:23 | 23.06949 | 61.59958 | 32773 ft | 516 kts | 89° |
| 2026-05-07 18:24 | 23.06981 | 61.67763 | 32773 ft | 516 kts | 89° |
| 2026-05-07 18:24 | 23.07006 | 61.75562 | 32771 ft | 516 kts | 89° |
| 2026-05-07 18:25 | 23.07012 | 61.83361 | 32770 ft | 516 kts | 90° |
| 2026-05-07 18:25 | 23.07010 | 61.91110 | 32772 ft | 516 kts | 90° |
| 2026-05-07 18:26 | 23.07006 | 61.98917 | 32774 ft | 516 kts | 90° |
| 2026-05-07 18:26 | 23.07000 | 62.06727 | 32768 ft | 516 kts | 90° |
| 2026-05-07 18:27 | 23.06991 | 62.14476 | 32770 ft | 516 kts | 90° |
| 2026-05-07 18:27 | 23.06977 | 62.22269 | 32770 ft | 516 kts | 90° |
| 2026-05-07 18:28 | 23.06960 | 62.30073 | 32769 ft | 516 kts | 90° |
| 2026-05-07 18:28 | 23.06938 | 62.37870 | 32772 ft | 516 kts | 90° |
| 2026-05-07 18:29 | 23.06913 | 62.45672 | 32772 ft | 516 kts | 90° |
| 2026-05-07 18:29 | 23.06884 | 62.53476 | 32766 ft | 516 kts | 90° |
| 2026-05-07 18:30 | 23.06852 | 62.61231 | 32768 ft | 517 kts | 90° |
| 2026-05-07 18:30 | 23.06815 | 62.69035 | 32769 ft | 517 kts | 90° |
| 2026-05-07 18:31 | 23.06775 | 62.76844 | 32768 ft | 517 kts | 90° |
| 2026-05-07 18:31 | 23.06730 | 62.84653 | 32768 ft | 517 kts | 90° |
| 2026-05-07 18:32 | 23.06682 | 62.92468 | 32767 ft | 517 kts | 90° |
| 2026-05-07 18:32 | 23.06630 | 63.00280 | 32766 ft | 517 kts | 90° |
| 2026-05-07 18:33 | 23.06575 | 63.08094 | 32769 ft | 517 kts | 90° |
| 2026-05-07 18:33 | 23.06515 | 63.15913 | 32923 ft | 520 kts | 90° |
| 2026-05-07 18:33 | 23.06483 | 63.19839 | 33271 ft | 519 kts | 90° |
| 2026-05-07 18:34 | 23.06451 | 63.23701 | 33710 ft | 516 kts | 90° |
| 2026-05-07 18:34 | 23.06418 | 63.27592 | 34085 ft | 514 kts | 90° |
| 2026-05-07 18:34 | 23.06384 | 63.31460 | 34409 ft | 512 kts | 90° |
| 2026-05-07 18:34 | 23.06349 | 63.35340 | 34690 ft | 513 kts | 90° |
| 2026-05-07 18:35 | 23.06314 | 63.39232 | 34722 ft | 517 kts | 90° |
| 2026-05-07 18:35 | 23.06239 | 63.47027 | 34770 ft | 514 kts | 90° |
| 2026-05-07 18:36 | 23.06161 | 63.54743 | 34768 ft | 509 kts | 90° |
| 2026-05-07 18:36 | 23.06080 | 63.62425 | 34780 ft | 508 kts | 90° |
| 2026-05-07 18:37 | 23.05996 | 63.70047 | 34786 ft | 508 kts | 90° |
| 2026-05-07 18:37 | 23.05908 | 63.77727 | 34785 ft | 509 kts | 90° |
| 2026-05-07 18:38 | 23.05815 | 63.85415 | 34784 ft | 509 kts | 90° |
| 2026-05-07 18:38 | 23.05243 | 63.93086 | 34789 ft | 510 kts | 96° |
| 2026-05-07 18:39 | 23.04417 | 64.00754 | 34787 ft | 511 kts | 96° |
| 2026-05-07 18:39 | 23.03602 | 64.08427 | 34784 ft | 512 kts | 95° |
| 2026-05-07 18:40 | 23.02815 | 64.16069 | 34785 ft | 513 kts | 95° |
| 2026-05-07 18:40 | 23.02027 | 64.23789 | 34787 ft | 514 kts | 95° |
| 2026-05-07 18:41 | 23.01235 | 64.31503 | 34787 ft | 514 kts | 95° |
| 2026-05-07 18:41 | 23.00436 | 64.39224 | 34788 ft | 515 kts | 95° |
| 2026-05-07 18:42 | 22.99630 | 64.46963 | 34786 ft | 515 kts | 95° |
| 2026-05-07 18:42 | 22.98827 | 64.54643 | 34786 ft | 515 kts | 95° |
| 2026-05-07 18:43 | 22.98014 | 64.62387 | 34784 ft | 515 kts | 96° |
| 2026-05-07 18:43 | 22.97199 | 64.70114 | 34786 ft | 515 kts | 96° |
| 2026-05-07 18:44 | 22.96380 | 64.77851 | 34788 ft | 515 kts | 96° |
| 2026-05-07 18:44 | 22.95730 | 64.85546 | 34784 ft | 514 kts | 89° |
| 2026-05-07 18:45 | 22.95782 | 64.93290 | 34790 ft | 513 kts | 88° |
| 2026-05-07 18:45 | 22.95884 | 65.01036 | 34787 ft | 513 kts | 88° |
| 2026-05-07 18:46 | 22.95952 | 65.08787 | 34790 ft | 513 kts | 88° |
| 2026-05-07 18:46 | 22.95991 | 65.16535 | 34791 ft | 514 kts | 88° |
| 2026-05-07 18:47 | 22.96022 | 65.24285 | 34787 ft | 513 kts | 88° |
| 2026-05-07 18:47 | 22.96049 | 65.31992 | 34793 ft | 513 kts | 88° |
| 2026-05-07 18:48 | 22.96075 | 65.39743 | 34795 ft | 513 kts | 88° |
| 2026-05-07 18:48 | 22.96098 | 65.47500 | 34794 ft | 514 kts | 88° |
| 2026-05-07 18:49 | 22.96117 | 65.55251 | 34792 ft | 514 kts | 89° |
| 2026-05-07 18:49 | 22.96132 | 65.62999 | 34800 ft | 514 kts | 89° |
| 2026-05-07 18:50 | 22.96143 | 65.70755 | 34795 ft | 514 kts | 89° |
| 2026-05-07 18:50 | 22.96150 | 65.78520 | 34801 ft | 514 kts | 89° |
| 2026-05-07 18:51 | 22.96154 | 65.86287 | 34800 ft | 515 kts | 89° |
| 2026-05-07 18:51 | 22.96154 | 65.94059 | 34805 ft | 515 kts | 89° |
| 2026-05-07 18:52 | 22.96150 | 66.01846 | 34803 ft | 516 kts | 89° |
| 2026-05-07 18:52 | 22.96142 | 66.09580 | 34803 ft | 516 kts | 89° |
| 2026-05-07 18:53 | 22.96131 | 66.17377 | 34805 ft | 517 kts | 89° |
| 2026-05-07 18:53 | 22.96115 | 66.25171 | 34815 ft | 517 kts | 89° |
| 2026-05-07 18:54 | 22.96096 | 66.32994 | 34810 ft | 517 kts | 89° |
| 2026-05-07 18:54 | 22.96073 | 66.40806 | 34814 ft | 518 kts | 89° |
| 2026-05-07 18:55 | 22.96046 | 66.48625 | 34809 ft | 518 kts | 89° |
| 2026-05-07 18:55 | 22.96016 | 66.56402 | 34815 ft | 518 kts | 89° |
| 2026-05-07 18:56 | 22.95981 | 66.64223 | 34817 ft | 519 kts | 89° |
| 2026-05-07 18:56 | 22.95943 | 66.72062 | 34812 ft | 519 kts | 89° |
| 2026-05-07 18:57 | 22.95900 | 66.79904 | 34817 ft | 519 kts | 89° |
| 2026-05-07 18:57 | 22.95862 | 66.86414 | 34817 ft | 519 kts | 89° |
| 2026-05-07 18:58 | 22.95805 | 66.95515 | 34815 ft | 519 kts | 89° |
| 2026-05-07 18:58 | 22.95793 | 67.03341 | 34820 ft | 519 kts | 88° |
| 2026-05-07 18:59 | 22.95818 | 67.09894 | 34818 ft | 518 kts | 88° |
| 2026-05-07 18:59 | 22.95844 | 67.17722 | 34817 ft | 518 kts | 88° |
| 2026-05-07 19:00 | 22.95857 | 67.25485 | 34824 ft | 517 kts | 88° |
| 2026-05-07 19:00 | 22.95862 | 67.33298 | 34824 ft | 517 kts | 88° |
| 2026-05-07 19:01 | 22.95864 | 67.41114 | 34824 ft | 517 kts | 88° |
| 2026-05-07 19:01 | 22.95862 | 67.48922 | 34819 ft | 517 kts | 88° |
| 2026-05-07 19:02 | 22.95857 | 67.56721 | 34823 ft | 517 kts | 88° |
| 2026-05-07 19:02 | 22.95848 | 67.64485 | 34816 ft | 518 kts | 88° |
| 2026-05-07 19:03 | 22.95835 | 67.72302 | 34817 ft | 518 kts | 88° |
| 2026-05-07 19:03 | 22.95818 | 67.80120 | 34818 ft | 518 kts | 88° |
| 2026-05-07 19:04 | 22.95799 | 67.87946 | 34816 ft | 519 kts | 88° |
| 2026-05-07 19:04 | 22.95801 | 67.95775 | 34813 ft | 519 kts | 88° |
| 2026-05-07 19:05 | 22.95814 | 68.03616 | 34814 ft | 519 kts | 88° |
| 2026-05-07 19:05 | 22.95820 | 68.11418 | 34817 ft | 519 kts | 88° |
| 2026-05-07 19:06 | 22.95818 | 68.19265 | 34824 ft | 519 kts | 88° |
| 2026-05-07 19:06 | 22.95809 | 68.31028 | 34817 ft | 520 kts | 88° |
| 2026-05-07 19:07 | 22.95768 | 68.38887 | 34817 ft | 521 kts | 90° |
| 2026-05-07 19:07 | 22.95358 | 68.46740 | 34816 ft | 521 kts | 92° |
| 2026-05-07 19:08 | 22.94858 | 68.54588 | 34820 ft | 521 kts | 92° |
| 2026-05-07 19:08 | 22.94376 | 68.62401 | 34813 ft | 522 kts | 92° |
| 2026-05-07 19:09 | 22.93909 | 68.70280 | 34816 ft | 523 kts | 92° |
| 2026-05-07 19:09 | 22.93445 | 68.78157 | 34815 ft | 523 kts | 92° |
| 2026-05-07 19:10 | 22.92975 | 68.86051 | 34824 ft | 523 kts | 92° |
| 2026-05-07 19:10 | 22.92502 | 68.93899 | 34808 ft | 524 kts | 92° |
| 2026-05-07 19:11 | 22.92022 | 69.01795 | 34817 ft | 524 kts | 92° |
| 2026-05-07 19:11 | 22.91538 | 69.09686 | 34815 ft | 524 kts | 92° |
| 2026-05-07 19:12 | 22.91050 | 69.17575 | 34817 ft | 524 kts | 92° |
| 2026-05-07 19:12 | 22.90562 | 69.25413 | 34818 ft | 524 kts | 92° |
| 2026-05-07 19:13 | 22.90067 | 69.33299 | 34821 ft | 524 kts | 92° |
| 2026-05-07 19:13 | 22.89569 | 69.41183 | 34824 ft | 524 kts | 92° |
| 2026-05-07 19:14 | 22.89065 | 69.49084 | 34824 ft | 524 kts | 92° |
| 2026-05-07 19:14 | 22.88558 | 69.56971 | 34833 ft | 525 kts | 92° |
| 2026-05-07 19:15 | 22.88046 | 69.64883 | 34825 ft | 526 kts | 92° |
| 2026-05-07 19:15 | 22.87535 | 69.72809 | 34831 ft | 526 kts | 92° |
| 2026-05-07 19:16 | 22.87075 | 69.80681 | 34831 ft | 527 kts | 91° |
| 2026-05-07 19:16 | 22.86625 | 69.88619 | 34838 ft | 527 kts | 91° |
| 2026-05-07 19:17 | 22.86163 | 69.96570 | 34830 ft | 528 kts | 91° |
| 2026-05-07 19:17 | 22.85691 | 70.04516 | 34829 ft | 528 kts | 91° |
| 2026-05-07 19:18 | 22.85214 | 70.12473 | 34831 ft | 529 kts | 92° |
| 2026-05-07 19:18 | 22.84733 | 70.20446 | 34841 ft | 529 kts | 92° |
| 2026-05-07 19:19 | 22.84247 | 70.28419 | 34837 ft | 530 kts | 91° |
| 2026-05-07 19:19 | 22.83761 | 70.36340 | 34842 ft | 530 kts | 92° |
| 2026-05-07 19:20 | 22.83268 | 70.44312 | 34841 ft | 530 kts | 92° |
| 2026-05-07 19:20 | 22.82770 | 70.52303 | 34832 ft | 529 kts | 92° |
| 2026-05-07 19:21 | 22.82273 | 70.60208 | 34843 ft | 529 kts | 92° |
| 2026-05-07 19:21 | 22.81769 | 70.68164 | 34839 ft | 528 kts | 92° |
| 2026-05-07 19:22 | 22.81263 | 70.76105 | 34839 ft | 528 kts | 92° |
| 2026-05-07 19:22 | 22.81041 | 70.84038 | 34850 ft | 525 kts | 84° |
| 2026-05-07 19:23 | 22.81977 | 70.91844 | 34848 ft | 522 kts | 77° |
| 2026-05-07 19:23 | 22.83214 | 70.99595 | 34847 ft | 522 kts | 77° |
| 2026-05-07 19:24 | 22.84420 | 71.07370 | 34840 ft | 523 kts | 77° |
| 2026-05-07 19:24 | 22.85589 | 71.15152 | 34839 ft | 523 kts | 78° |
| 2026-05-07 19:25 | 22.86740 | 71.22907 | 34828 ft | 524 kts | 78° |
| 2026-05-07 19:25 | 22.87894 | 71.30708 | 34828 ft | 524 kts | 78° |
| 2026-05-07 19:26 | 22.89048 | 71.38515 | 34829 ft | 524 kts | 78° |
| 2026-05-07 19:26 | 22.90200 | 71.46334 | 34826 ft | 524 kts | 78° |
| 2026-05-07 19:27 | 22.91341 | 71.54100 | 34825 ft | 524 kts | 78° |
| 2026-05-07 19:27 | 22.92484 | 71.61913 | 34824 ft | 525 kts | 78° |
| 2026-05-07 19:28 | 22.93625 | 71.69737 | 34817 ft | 525 kts | 78° |
| 2026-05-07 19:28 | 22.94762 | 71.77561 | 34812 ft | 525 kts | 78° |
| 2026-05-07 19:29 | 22.95897 | 71.85399 | 34810 ft | 524 kts | 78° |
| 2026-05-07 19:29 | 22.97017 | 71.93162 | 34815 ft | 525 kts | 78° |
| 2026-05-07 19:30 | 22.98142 | 72.00987 | 34807 ft | 525 kts | 78° |
| 2026-05-07 19:30 | 22.99264 | 72.08819 | 34809 ft | 525 kts | 78° |
| 2026-05-07 19:31 | 23.00383 | 72.16660 | 34801 ft | 525 kts | 78° |
| 2026-05-07 19:31 | 23.01499 | 72.24505 | 34801 ft | 525 kts | 78° |
| 2026-05-07 19:32 | 23.02604 | 72.32309 | 34800 ft | 526 kts | 78° |
| 2026-05-07 19:32 | 23.03713 | 72.40164 | 34798 ft | 526 kts | 78° |
| 2026-05-07 19:33 | 23.04820 | 72.48031 | 34801 ft | 527 kts | 78° |
| 2026-05-07 19:33 | 23.05923 | 72.55899 | 34803 ft | 527 kts | 78° |
| 2026-05-07 19:34 | 23.06984 | 72.63787 | 34804 ft | 528 kts | 81° |
| 2026-05-07 19:34 | 23.07482 | 72.71719 | 34811 ft | 530 kts | 84° |
| 2026-05-07 19:35 | 23.07876 | 72.79721 | 34802 ft | 530 kts | 84° |
| 2026-05-07 19:35 | 23.08289 | 72.87725 | 34796 ft | 531 kts | 84° |
| 2026-05-07 19:36 | 23.08725 | 72.95731 | 34802 ft | 531 kts | 84° |
| 2026-05-07 19:36 | 23.09166 | 73.03747 | 34800 ft | 532 kts | 84° |
| 2026-05-07 19:37 | 23.09599 | 73.11731 | 34802 ft | 533 kts | 84° |
| 2026-05-07 19:37 | 23.10030 | 73.19775 | 34803 ft | 533 kts | 84° |
| 2026-05-07 19:38 | 23.10456 | 73.27820 | 34808 ft | 533 kts | 84° |
| 2026-05-07 19:38 | 23.10878 | 73.35876 | 34808 ft | 534 kts | 84° |
| 2026-05-07 19:39 | 23.11297 | 73.43931 | 34806 ft | 534 kts | 84° |
| 2026-05-07 19:39 | 23.11642 | 73.50632 | 34815 ft | 535 kts | 84° |
| 2026-05-07 19:40 | 23.12120 | 73.60010 | 34819 ft | 535 kts | 84° |
| 2026-05-07 19:40 | 23.12527 | 73.68091 | 34826 ft | 535 kts | 84° |
| 2026-05-07 19:41 | 23.12931 | 73.76171 | 34831 ft | 536 kts | 84° |
| 2026-05-07 19:41 | 23.13330 | 73.84265 | 34827 ft | 536 kts | 84° |
| 2026-05-07 19:42 | 23.13724 | 73.92351 | 34832 ft | 535 kts | 84° |
| 2026-05-07 19:42 | 23.14116 | 74.00439 | 34841 ft | 535 kts | 84° |
| 2026-05-07 19:43 | 23.14501 | 74.08466 | 34838 ft | 535 kts | 84° |
| 2026-05-07 19:43 | 23.14884 | 74.16558 | 34837 ft | 535 kts | 84° |
| 2026-05-07 19:44 | 23.15262 | 74.24640 | 34850 ft | 535 kts | 84° |
| 2026-05-07 19:44 | 23.15638 | 74.32734 | 34856 ft | 535 kts | 84° |
| 2026-05-07 19:45 | 23.15915 | 74.40822 | 34861 ft | 536 kts | 86° |
| 2026-05-07 19:45 | 23.16049 | 74.48891 | 34861 ft | 537 kts | 86° |
| 2026-05-07 19:46 | 23.16180 | 74.57019 | 34865 ft | 537 kts | 86° |
| 2026-05-07 19:46 | 23.16332 | 74.65138 | 34876 ft | 538 kts | 86° |
| 2026-05-07 19:47 | 23.16464 | 74.71896 | 34876 ft | 538 kts | 86° |
| 2026-05-07 19:47 | 23.16646 | 74.81352 | 34884 ft | 538 kts | 86° |
| 2026-05-07 19:48 | 23.16771 | 74.88165 | 34877 ft | 538 kts | 86° |
| 2026-05-07 19:48 | 23.16916 | 74.96298 | 34880 ft | 538 kts | 86° |
| 2026-05-07 19:49 | 23.17056 | 75.04380 | 34877 ft | 538 kts | 86° |
| 2026-05-07 19:49 | 23.17193 | 75.12520 | 34893 ft | 539 kts | 86° |
| 2026-05-07 19:50 | 23.17326 | 75.20663 | 34895 ft | 539 kts | 86° |
| 2026-05-07 19:50 | 23.17455 | 75.28824 | 34898 ft | 540 kts | 86° |
| 2026-05-07 19:51 | 23.17580 | 75.36990 | 34903 ft | 540 kts | 86° |
| 2026-05-07 19:51 | 23.17700 | 75.45158 | 34905 ft | 540 kts | 86° |
| 2026-05-07 19:52 | 23.17817 | 75.53337 | 34911 ft | 541 kts | 86° |
| 2026-05-07 19:52 | 23.17929 | 75.61480 | 34908 ft | 542 kts | 86° |
| 2026-05-07 19:53 | 23.18037 | 75.69670 | 34916 ft | 542 kts | 87° |
| 2026-05-07 19:53 | 23.18141 | 75.77867 | 34915 ft | 542 kts | 87° |
| 2026-05-07 19:54 | 23.18241 | 75.86067 | 34921 ft | 542 kts | 87° |
| 2026-05-07 19:54 | 23.18337 | 75.94268 | 34917 ft | 542 kts | 87° |
| 2026-05-07 19:55 | 23.18536 | 76.02453 | 34916 ft | 541 kts | 83° |
| 2026-05-07 19:55 | 23.19160 | 76.10543 | 34916 ft | 540 kts | 82° |
| 2026-05-07 19:56 | 23.19841 | 76.18694 | 34920 ft | 540 kts | 82° |
| 2026-05-07 19:56 | 23.20491 | 76.26843 | 34905 ft | 541 kts | 82° |
| 2026-05-07 19:57 | 23.21113 | 76.34998 | 34909 ft | 541 kts | 83° |
| 2026-05-07 19:57 | 23.21727 | 76.43145 | 34896 ft | 541 kts | 83° |
| 2026-05-07 19:58 | 23.22334 | 76.51243 | 34904 ft | 540 kts | 83° |
| 2026-05-07 19:58 | 23.22944 | 76.59401 | 34891 ft | 541 kts | 83° |
| 2026-05-07 19:59 | 23.23549 | 76.67557 | 34889 ft | 541 kts | 83° |
| 2026-05-07 19:59 | 23.24147 | 76.75665 | 34888 ft | 541 kts | 83° |
| 2026-05-07 20:00 | 23.24744 | 76.83822 | 34884 ft | 541 kts | 83° |
| 2026-05-07 20:00 | 23.25338 | 76.92003 | 34892 ft | 541 kts | 83° |
| 2026-05-07 20:01 | 23.25923 | 77.00116 | 34883 ft | 541 kts | 83° |
| 2026-05-07 20:01 | 23.26509 | 77.08307 | 34880 ft | 542 kts | 83° |
| 2026-05-07 20:02 | 23.27090 | 77.16478 | 34871 ft | 542 kts | 83° |
| 2026-05-07 20:02 | 23.27667 | 77.24655 | 34877 ft | 542 kts | 83° |
| 2026-05-07 20:03 | 23.28227 | 77.32840 | 34865 ft | 543 kts | 85° |
| 2026-05-07 20:03 | 23.28122 | 77.41011 | 34868 ft | 545 kts | 91° |
| 2026-05-07 20:04 | 23.27722 | 77.49242 | 34865 ft | 545 kts | 91° |
| 2026-05-07 20:04 | 23.27335 | 77.57482 | 34856 ft | 546 kts | 91° |
| 2026-05-07 20:05 | 23.26982 | 77.65740 | 34854 ft | 546 kts | 91° |
| 2026-05-07 20:05 | 23.26641 | 77.73992 | 34849 ft | 547 kts | 91° |
| 2026-05-07 20:06 | 23.26293 | 77.82256 | 34851 ft | 546 kts | 91° |
| 2026-05-07 20:06 | 23.25938 | 77.90507 | 34853 ft | 546 kts | 91° |
| 2026-05-07 20:07 | 23.25578 | 77.98745 | 34852 ft | 546 kts | 91° |
| 2026-05-07 20:07 | 23.25213 | 78.06995 | 34850 ft | 546 kts | 92° |
| 2026-05-07 20:08 | 23.24847 | 78.15190 | 34840 ft | 546 kts | 92° |
| 2026-05-07 20:08 | 23.24474 | 78.23432 | 34837 ft | 546 kts | 92° |
| 2026-05-07 20:09 | 23.24097 | 78.31678 | 34846 ft | 545 kts | 92° |
| 2026-05-07 20:10 | 23.23525 | 78.44036 | 34844 ft | 546 kts | 92° |
| 2026-05-07 20:10 | 23.23137 | 78.52283 | 34844 ft | 546 kts | 92° |
| 2026-05-07 20:11 | 23.22744 | 78.60537 | 34846 ft | 546 kts | 92° |
| 2026-05-07 20:11 | 23.22348 | 78.68782 | 34857 ft | 546 kts | 92° |
| 2026-05-07 20:12 | 23.21977 | 78.76989 | 34841 ft | 547 kts | 91° |
| 2026-05-07 20:12 | 23.21849 | 78.85263 | 34840 ft | 547 kts | 89° |
| 2026-05-07 20:13 | 23.21789 | 78.93546 | 34843 ft | 547 kts | 89° |
| 2026-05-07 20:13 | 23.21684 | 79.01836 | 34838 ft | 548 kts | 90° |
| 2026-05-07 20:14 | 23.21548 | 79.10070 | 34836 ft | 548 kts | 90° |
| 2026-05-07 20:14 | 23.21403 | 79.18378 | 34833 ft | 549 kts | 90° |
| 2026-05-07 20:15 | 23.21258 | 79.26683 | 34836 ft | 549 kts | 90° |
| 2026-05-07 20:15 | 23.21109 | 79.35006 | 34836 ft | 550 kts | 90° |
| 2026-05-07 20:16 | 23.20957 | 79.43324 | 34849 ft | 550 kts | 90° |
| 2026-05-07 20:16 | 23.20801 | 79.51601 | 34843 ft | 551 kts | 90° |
| 2026-05-07 20:17 | 23.20617 | 79.59933 | 34841 ft | 552 kts | 91° |
| 2026-05-07 20:17 | 23.20268 | 79.68269 | 34841 ft | 552 kts | 92° |
| 2026-05-07 20:18 | 23.19879 | 79.76610 | 34838 ft | 552 kts | 92° |
| 2026-05-07 20:18 | 23.19515 | 79.84938 | 34837 ft | 552 kts | 92° |
| 2026-05-07 20:19 | 23.19159 | 79.93291 | 34844 ft | 553 kts | 92° |
| 2026-05-07 20:19 | 23.18799 | 80.01586 | 34844 ft | 553 kts | 92° |
| 2026-05-07 20:20 | 23.18421 | 80.09948 | 34843 ft | 553 kts | 93° |
| 2026-05-07 20:20 | 23.17992 | 80.18305 | 34859 ft | 553 kts | 93° |
| 2026-05-07 20:21 | 23.17550 | 80.26659 | 34852 ft | 554 kts | 93° |
| 2026-05-07 20:21 | 23.17111 | 80.35032 | 34861 ft | 555 kts | 93° |
| 2026-05-07 20:22 | 23.16671 | 80.43410 | 34849 ft | 555 kts | 93° |
| 2026-05-07 20:22 | 23.16227 | 80.51785 | 34863 ft | 555 kts | 93° |
| 2026-05-07 20:23 | 23.15780 | 80.60123 | 34864 ft | 555 kts | 94° |
| 2026-05-07 20:23 | 23.15326 | 80.68503 | 34866 ft | 555 kts | 94° |
| 2026-05-07 20:24 | 23.14869 | 80.76874 | 34865 ft | 554 kts | 94° |
| 2026-05-07 20:24 | 23.14415 | 80.85170 | 34872 ft | 553 kts | 94° |
| 2026-05-07 20:25 | 23.13958 | 80.93508 | 34880 ft | 552 kts | 94° |
| 2026-05-07 20:25 | 23.13499 | 81.01841 | 34872 ft | 551 kts | 94° |
| 2026-05-07 20:26 | 23.13034 | 81.10152 | 34874 ft | 551 kts | 94° |
| 2026-05-07 20:26 | 23.12564 | 81.18470 | 34872 ft | 551 kts | 94° |
| 2026-05-07 20:27 | 23.12089 | 81.26791 | 34891 ft | 551 kts | 94° |
| 2026-05-07 20:27 | 23.11614 | 81.35064 | 34877 ft | 552 kts | 95° |
| 2026-05-07 20:28 | 23.11131 | 81.43391 | 34876 ft | 552 kts | 95° |
| 2026-05-07 20:28 | 23.10642 | 81.51732 | 34872 ft | 553 kts | 95° |
| 2026-05-07 20:29 | 23.10148 | 81.60090 | 34871 ft | 554 kts | 95° |
| 2026-05-07 20:29 | 23.09650 | 81.68446 | 34868 ft | 554 kts | 95° |
| 2026-05-07 20:30 | 23.09151 | 81.76748 | 34864 ft | 554 kts | 95° |
| 2026-05-07 20:30 | 23.08643 | 81.85117 | 34865 ft | 554 kts | 95° |
| 2026-05-07 20:31 | 23.08131 | 81.93477 | 34867 ft | 554 kts | 95° |
| 2026-05-07 20:31 | 23.07615 | 82.01839 | 34860 ft | 554 kts | 95° |
| 2026-05-07 20:32 | 23.07099 | 82.10133 | 34858 ft | 554 kts | 95° |
| 2026-05-07 20:32 | 23.06583 | 82.18489 | 34857 ft | 554 kts | 95° |
| 2026-05-07 20:33 | 23.06197 | 82.26857 | 34860 ft | 554 kts | 94° |
| 2026-05-07 20:33 | 23.05926 | 82.33806 | 34859 ft | 554 kts | 94° |
| 2026-05-07 20:34 | 23.05584 | 82.42164 | 34858 ft | 554 kts | 94° |
| 2026-05-07 20:34 | 23.05155 | 82.51876 | 34848 ft | 553 kts | 94° |
| 2026-05-07 20:35 | 23.04837 | 82.58866 | 34850 ft | 553 kts | 94° |
| 2026-05-07 20:35 | 23.04453 | 82.67216 | 34852 ft | 553 kts | 94° |
| 2026-05-07 20:36 | 23.04070 | 82.75519 | 34863 ft | 553 kts | 94° |
| 2026-05-07 20:36 | 23.03681 | 82.83863 | 34859 ft | 553 kts | 95° |
| 2026-05-07 20:37 | 23.03287 | 82.92214 | 34861 ft | 553 kts | 95° |
| 2026-05-07 20:37 | 23.02888 | 83.00571 | 34861 ft | 553 kts | 95° |
| 2026-05-07 20:38 | 23.02488 | 83.08865 | 34872 ft | 553 kts | 95° |
| 2026-05-07 20:38 | 23.02081 | 83.17201 | 34894 ft | 553 kts | 95° |
| 2026-05-07 20:39 | 23.01670 | 83.25543 | 34885 ft | 553 kts | 95° |
| 2026-05-07 20:39 | 23.01254 | 83.33886 | 34902 ft | 553 kts | 95° |
| 2026-05-07 20:40 | 23.00833 | 83.42243 | 34897 ft | 554 kts | 95° |
| 2026-05-07 20:40 | 23.00408 | 83.50598 | 34919 ft | 554 kts | 95° |
| 2026-05-07 20:41 | 22.99981 | 83.58903 | 34916 ft | 554 kts | 95° |
| 2026-05-07 20:41 | 22.99547 | 83.67263 | 34931 ft | 554 kts | 95° |
| 2026-05-07 20:42 | 22.99109 | 83.75627 | 34934 ft | 554 kts | 95° |
| 2026-05-07 20:42 | 22.98666 | 83.83982 | 34914 ft | 555 kts | 95° |
| 2026-05-07 20:43 | 22.98222 | 83.92278 | 34930 ft | 553 kts | 95° |
| 2026-05-07 20:43 | 22.97772 | 84.00612 | 34932 ft | 553 kts | 96° |
| 2026-05-07 20:44 | 22.97318 | 84.08943 | 34947 ft | 552 kts | 96° |
| 2026-05-07 20:44 | 22.96833 | 84.17252 | 34951 ft | 551 kts | 96° |
| 2026-05-07 20:45 | 22.96231 | 84.25551 | 34947 ft | 551 kts | 97° |
| 2026-05-07 20:45 | 22.95610 | 84.33794 | 34958 ft | 551 kts | 97° |
| 2026-05-07 20:46 | 22.94999 | 84.42088 | 34960 ft | 551 kts | 97° |
| 2026-05-07 20:46 | 22.94394 | 84.50385 | 34957 ft | 552 kts | 97° |
| 2026-05-07 20:47 | 22.93785 | 84.58700 | 34952 ft | 552 kts | 97° |
| 2026-05-07 20:47 | 22.93170 | 84.67014 | 34957 ft | 552 kts | 97° |
| 2026-05-07 20:48 | 22.92549 | 84.75328 | 34965 ft | 553 kts | 97° |
| 2026-05-07 20:48 | 22.91925 | 84.83642 | 34968 ft | 553 kts | 97° |
| 2026-05-07 20:49 | 22.91299 | 84.91913 | 34967 ft | 553 kts | 97° |
| 2026-05-07 20:49 | 22.90665 | 85.00241 | 34968 ft | 552 kts | 97° |
| 2026-05-07 20:50 | 22.90028 | 85.08551 | 34957 ft | 552 kts | 97° |
| 2026-05-07 20:50 | 22.89392 | 85.16796 | 34959 ft | 552 kts | 97° |
| 2026-05-07 20:51 | 22.88747 | 85.25097 | 34961 ft | 551 kts | 98° |
| 2026-05-07 20:51 | 22.88101 | 85.33384 | 34963 ft | 551 kts | 98° |
| 2026-05-07 20:52 | 22.87450 | 85.41672 | 34964 ft | 551 kts | 98° |
| 2026-05-07 20:52 | 22.86794 | 85.49963 | 34952 ft | 551 kts | 98° |
| 2026-05-07 20:53 | 22.86135 | 85.58236 | 34955 ft | 551 kts | 98° |
| 2026-05-07 20:53 | 22.85473 | 85.66515 | 34966 ft | 551 kts | 98° |
| 2026-05-07 20:54 | 22.84808 | 85.74748 | 34930 ft | 551 kts | 98° |
| 2026-05-07 20:54 | 22.84135 | 85.83034 | 34941 ft | 551 kts | 98° |
| 2026-05-07 20:55 | 22.83460 | 85.91310 | 34933 ft | 550 kts | 98° |
| 2026-05-07 20:55 | 22.82780 | 85.99572 | 34934 ft | 550 kts | 98° |
| 2026-05-07 20:56 | 22.82101 | 86.07783 | 34939 ft | 550 kts | 98° |
| 2026-05-07 20:56 | 22.81414 | 86.16034 | 34939 ft | 550 kts | 98° |
| 2026-05-07 20:57 | 22.80837 | 86.24308 | 34933 ft | 550 kts | 96° |
| 2026-05-07 20:57 | 22.80436 | 86.32602 | 34930 ft | 551 kts | 96° |
| 2026-05-07 20:58 | 22.80037 | 86.40904 | 34926 ft | 551 kts | 96° |
| 2026-05-07 20:58 | 22.79603 | 86.49135 | 34916 ft | 551 kts | 96° |
| 2026-05-07 20:59 | 22.79145 | 86.57430 | 34913 ft | 551 kts | 96° |
| 2026-05-07 20:59 | 22.78682 | 86.65715 | 34915 ft | 550 kts | 96° |
| 2026-05-07 21:00 | 22.78217 | 86.73993 | 34912 ft | 550 kts | 96° |
| 2026-05-07 21:00 | 22.77753 | 86.82223 | 34914 ft | 550 kts | 96° |
| 2026-05-07 21:01 | 22.77281 | 86.90495 | 34913 ft | 550 kts | 96° |
| 2026-05-07 21:01 | 22.76805 | 86.98768 | 34899 ft | 550 kts | 97° |
| 2026-05-07 21:02 | 22.76328 | 87.06992 | 34906 ft | 550 kts | 97° |
| 2026-05-07 21:02 | 22.75844 | 87.15259 | 34900 ft | 550 kts | 97° |
| 2026-05-07 21:03 | 22.75357 | 87.23511 | 34892 ft | 549 kts | 97° |
| 2026-05-07 21:03 | 22.74865 | 87.31762 | 34894 ft | 547 kts | 97° |
| 2026-05-07 21:04 | 22.74370 | 87.39997 | 34899 ft | 546 kts | 97° |
| 2026-05-07 21:04 | 22.73876 | 87.48159 | 34894 ft | 545 kts | 97° |
| 2026-05-07 21:05 | 22.73375 | 87.56349 | 34889 ft | 544 kts | 97° |
| 2026-05-07 21:05 | 22.72870 | 87.64537 | 34891 ft | 544 kts | 97° |
| 2026-05-07 21:06 | 22.72362 | 87.72714 | 34880 ft | 544 kts | 97° |
| 2026-05-07 21:06 | 22.71849 | 87.80898 | 34888 ft | 544 kts | 97° |
| 2026-05-07 21:07 | 22.71332 | 87.89075 | 34880 ft | 544 kts | 97° |
| 2026-05-07 21:07 | 22.70813 | 87.97214 | 34881 ft | 545 kts | 97° |
| 2026-05-07 21:08 | 22.70287 | 88.05412 | 34876 ft | 545 kts | 97° |
| 2026-05-07 21:08 | 22.69756 | 88.13616 | 34869 ft | 546 kts | 97° |
| 2026-05-07 21:09 | 22.69221 | 88.21821 | 34866 ft | 546 kts | 97° |
| 2026-05-07 21:09 | 22.68682 | 88.30024 | 34860 ft | 546 kts | 97° |
| 2026-05-07 21:10 | 22.68159 | 88.38231 | 34851 ft | 546 kts | 95° |
| 2026-05-07 21:10 | 22.68298 | 88.42385 | 34206 ft | 561 kts | 84° |
| 2026-05-07 21:10 | 22.69155 | 88.46534 | 33383 ft | 567 kts | 73° |
| 2026-05-07 21:10 | 22.70620 | 88.50441 | 32554 ft | 567 kts | 62° |
| 2026-05-07 21:11 | 22.72646 | 88.54059 | 32089 ft | 557 kts | 57° |
| 2026-05-07 21:11 | 22.74719 | 88.57580 | 31571 ft | 552 kts | 57° |
| 2026-05-07 21:11 | 22.78746 | 88.64584 | 30615 ft | 543 kts | 58° |
| 2026-05-07 21:12 | 22.80700 | 88.68072 | 30108 ft | 539 kts | 59° |
| 2026-05-07 21:12 | 22.82626 | 88.71542 | 29555 ft | 536 kts | 59° |
| 2026-05-07 21:12 | 22.84540 | 88.75000 | 29023 ft | 532 kts | 59° |
| 2026-05-07 21:12 | 22.86437 | 88.78427 | 28502 ft | 527 kts | 59° |
| 2026-05-07 21:13 | 22.88293 | 88.81774 | 28009 ft | 522 kts | 59° |
| 2026-05-07 21:13 | 22.90157 | 88.85133 | 27521 ft | 518 kts | 59° |
| 2026-05-07 21:13 | 22.92007 | 88.88466 | 27028 ft | 513 kts | 58° |
| 2026-05-07 21:13 | 22.93855 | 88.91767 | 26557 ft | 509 kts | 57° |
| 2026-05-07 21:14 | 22.95760 | 88.94988 | 26071 ft | 505 kts | 56° |
| 2026-05-07 21:14 | 22.97693 | 88.98150 | 25595 ft | 501 kts | 55° |
| 2026-05-07 21:14 | 22.99626 | 89.01281 | 25111 ft | 498 kts | 55° |
| 2026-05-07 21:14 | 23.01548 | 89.04401 | 24625 ft | 495 kts | 55° |
| 2026-05-07 21:15 | 23.03446 | 89.07507 | 24144 ft | 492 kts | 55° |
| 2026-05-07 21:15 | 23.05324 | 89.10599 | 23672 ft | 489 kts | 55° |
| 2026-05-07 21:15 | 23.07166 | 89.13645 | 23127 ft | 486 kts | 55° |
| 2026-05-07 21:15 | 23.09012 | 89.16708 | 22627 ft | 482 kts | 55° |
| 2026-05-07 21:16 | 23.10839 | 89.19742 | 22139 ft | 477 kts | 55° |
| 2026-05-07 21:16 | 23.12651 | 89.22755 | 21644 ft | 473 kts | 55° |
| 2026-05-07 21:16 | 23.14443 | 89.25734 | 21179 ft | 469 kts | 55° |
| 2026-05-07 21:16 | 23.16218 | 89.28685 | 20709 ft | 465 kts | 55° |
| 2026-05-07 21:17 | 23.17984 | 89.31623 | 20242 ft | 461 kts | 55° |
| 2026-05-07 21:17 | 23.19731 | 89.34529 | 19781 ft | 458 kts | 55° |
| 2026-05-07 21:17 | 23.21447 | 89.37387 | 19319 ft | 455 kts | 55° |
| 2026-05-07 21:17 | 23.23173 | 89.40261 | 18849 ft | 452 kts | 55° |
| 2026-05-07 21:18 | 23.24884 | 89.43113 | 18373 ft | 449 kts | 55° |
| 2026-05-07 21:18 | 23.26592 | 89.45963 | 17859 ft | 447 kts | 56° |
| 2026-05-07 21:18 | 23.28284 | 89.48786 | 17342 ft | 444 kts | 56° |
| 2026-05-07 21:18 | 23.29963 | 89.51591 | 16854 ft | 440 kts | 56° |
| 2026-05-07 21:19 | 23.31624 | 89.54366 | 16384 ft | 436 kts | 55° |
| 2026-05-07 21:19 | 23.33273 | 89.57123 | 15916 ft | 432 kts | 55° |
| 2026-05-07 21:19 | 23.34891 | 89.59828 | 15460 ft | 429 kts | 55° |
| 2026-05-07 21:19 | 23.36510 | 89.62538 | 14995 ft | 426 kts | 55° |
| 2026-05-07 21:20 | 23.38122 | 89.65241 | 14533 ft | 423 kts | 56° |
| 2026-05-07 21:20 | 23.39673 | 89.67947 | 14071 ft | 420 kts | 57° |
| 2026-05-07 21:20 | 23.41186 | 89.70663 | 13582 ft | 418 kts | 57° |
| 2026-05-07 21:20 | 23.42681 | 89.73370 | 13069 ft | 415 kts | 57° |
| 2026-05-07 21:21 | 23.44166 | 89.76055 | 12596 ft | 412 kts | 57° |
| 2026-05-07 21:21 | 23.45646 | 89.78724 | 12123 ft | 409 kts | 57° |
| 2026-05-07 21:21 | 23.47116 | 89.81367 | 11661 ft | 406 kts | 57° |
| 2026-05-07 21:21 | 23.48577 | 89.83989 | 11209 ft | 403 kts | 57° |
| 2026-05-07 21:22 | 23.50011 | 89.86561 | 10763 ft | 401 kts | 57° |
| 2026-05-07 21:22 | 23.51440 | 89.89128 | 10572 ft | 390 kts | 57° |
| 2026-05-07 21:22 | 23.52835 | 89.91634 | 10410 ft | 381 kts | 57° |
| 2026-05-07 21:22 | 23.54192 | 89.94073 | 10238 ft | 371 kts | 56° |
| 2026-05-07 21:23 | 23.55515 | 89.96451 | 10092 ft | 363 kts | 56° |
| 2026-05-07 21:23 | 23.56810 | 89.98779 | 9937 ft | 354 kts | 56° |
| 2026-05-07 21:23 | 23.58063 | 90.01033 | 9715 ft | 349 kts | 56° |
| 2026-05-07 21:23 | 23.59311 | 90.03278 | 9473 ft | 343 kts | 57° |
| 2026-05-07 21:24 | 23.60302 | 90.05564 | 9293 ft | 329 kts | 74° |
| 2026-05-07 21:24 | 23.60570 | 90.07162 | 9223 ft | 317 kts | 82° |
| 2026-05-07 21:24 | 23.60833 | 90.09513 | 9080 ft | 306 kts | 81° |
| 2026-05-07 21:24 | 23.61107 | 90.11782 | 8882 ft | 297 kts | 81° |
| 2026-05-07 21:25 | 23.61476 | 90.14700 | 8484 ft | 291 kts | 81° |
| 2026-05-07 21:25 | 23.61667 | 90.16171 | 8226 ft | 289 kts | 81° |
| 2026-05-07 21:25 | 23.61952 | 90.18339 | 7870 ft | 288 kts | 81° |
| 2026-05-07 21:25 | 23.62236 | 90.20490 | 7529 ft | 285 kts | 81° |
| 2026-05-07 21:26 | 23.62520 | 90.22623 | 7192 ft | 283 kts | 81° |
| 2026-05-07 21:26 | 23.62799 | 90.24712 | 6862 ft | 281 kts | 81° |
| 2026-05-07 21:26 | 23.63079 | 90.26808 | 6527 ft | 278 kts | 81° |
| 2026-05-07 21:26 | 23.63357 | 90.28889 | 6195 ft | 276 kts | 81° |
| 2026-05-07 21:27 | 23.63632 | 90.30949 | 5839 ft | 274 kts | 81° |
| 2026-05-07 21:27 | 23.63906 | 90.32996 | 5486 ft | 271 kts | 82° |
| 2026-05-07 21:27 | 23.64177 | 90.35028 | 5136 ft | 269 kts | 82° |
| 2026-05-07 21:27 | 23.64446 | 90.37042 | 4786 ft | 267 kts | 82° |
| 2026-05-07 21:28 | 23.64713 | 90.39043 | 4438 ft | 265 kts | 82° |
| 2026-05-07 21:28 | 23.64975 | 90.41016 | 4173 ft | 259 kts | 82° |
| 2026-05-07 21:28 | 23.65235 | 90.42916 | 3967 ft | 247 kts | 78° |
| 2026-05-07 21:28 | 23.65917 | 90.44572 | 3659 ft | 235 kts | 51° |
| 2026-05-07 21:29 | 23.66925 | 90.45954 | 3432 ft | 232 kts | 53° |
| 2026-05-07 21:29 | 23.67874 | 90.47353 | 3227 ft | 232 kts | 54° |
| 2026-05-07 21:29 | 23.68818 | 90.48757 | 2948 ft | 226 kts | 53° |
| 2026-05-07 21:29 | 23.69947 | 90.49850 | 2667 ft | 213 kts | 18° |
| 2026-05-07 21:30 | 23.71377 | 90.49875 | 2455 ft | 210 kts | 336° |
| 2026-05-07 21:30 | 23.72622 | 90.49016 | 2336 ft | 217 kts | 324° |
| 2026-05-07 21:30 | 23.73865 | 90.48049 | 2078 ft | 220 kts | 324° |
| 2026-05-07 21:30 | 23.75101 | 90.47091 | 1949 ft | 213 kts | 324° |
| 2026-05-07 21:31 | 23.76284 | 90.46160 | 1891 ft | 207 kts | 324° |
| 2026-05-07 21:31 | 23.77459 | 90.45229 | 1904 ft | 211 kts | 324° |
| 2026-05-07 21:31 | 23.78651 | 90.44284 | 1894 ft | 212 kts | 324° |
| 2026-05-07 21:31 | 23.79833 | 90.43349 | 1892 ft | 212 kts | 324° |
| 2026-05-07 21:32 | 23.81026 | 90.42403 | 1880 ft | 212 kts | 324° |
| 2026-05-07 21:32 | 23.82220 | 90.41458 | 1878 ft | 211 kts | 324° |
| 2026-05-07 21:32 | 23.83410 | 90.40515 | 1881 ft | 214 kts | 323° |
| 2026-05-07 21:32 | 23.84711 | 90.39468 | 1941 ft | 247 kts | 323° |
| 2026-05-07 21:33 | 23.86120 | 90.38332 | 1908 ft | 253 kts | 323° |
| 2026-05-07 21:33 | 23.87547 | 90.37182 | 1891 ft | 255 kts | 323° |
| 2026-05-07 21:33 | 23.88958 | 90.36045 | 1893 ft | 255 kts | 323° |
| 2026-05-07 21:33 | 23.90340 | 90.34852 | 1866 ft | 250 kts | 312° |
| 2026-05-07 21:34 | 23.91121 | 90.33194 | 1876 ft | 250 kts | 278° |
| 2026-05-07 21:34 | 23.90987 | 90.31302 | 1872 ft | 254 kts | 249° |
| 2026-05-07 21:34 | 23.90034 | 90.29705 | 1883 ft | 253 kts | 221° |
| 2026-05-07 21:34 | 23.88504 | 90.28814 | 1877 ft | 250 kts | 191° |
| 2026-05-07 21:35 | 23.86788 | 90.28868 | 1865 ft | 248 kts | 161° |
| 2026-05-07 21:35 | 23.85229 | 90.29638 | 1889 ft | 247 kts | 152° |
| 2026-05-07 21:35 | 23.83717 | 90.30570 | 1891 ft | 254 kts | 149° |
| 2026-05-07 21:35 | 23.82227 | 90.31668 | 1887 ft | 261 kts | 143° |
| 2026-05-07 21:36 | 23.80768 | 90.32865 | 1882 ft | 262 kts | 143° |
| 2026-05-07 21:36 | 23.79319 | 90.34070 | 1878 ft | 262 kts | 143° |
| 2026-05-07 21:36 | 23.77872 | 90.35277 | 1876 ft | 261 kts | 143° |
| 2026-05-07 21:36 | 23.76431 | 90.36482 | 1880 ft | 261 kts | 142° |
| 2026-05-07 21:37 | 23.74991 | 90.37689 | 1860 ft | 261 kts | 142° |
| 2026-05-07 21:37 | 23.73555 | 90.38893 | 1875 ft | 260 kts | 142° |
| 2026-05-07 21:37 | 23.72135 | 90.40084 | 1874 ft | 261 kts | 142° |
| 2026-05-07 21:37 | 23.70697 | 90.41290 | 1872 ft | 261 kts | 142° |
| 2026-05-07 21:38 | 23.69259 | 90.42496 | 1872 ft | 260 kts | 142° |
| 2026-05-07 21:38 | 23.67861 | 90.43668 | 1841 ft | 245 kts | 142° |
| 2026-05-07 21:38 | 23.66561 | 90.44757 | 1840 ft | 226 kts | 142° |
| 2026-05-07 21:38 | 23.65413 | 90.45823 | 1824 ft | 209 kts | 124° |
| 2026-05-07 21:39 | 23.65038 | 90.47295 | 1925 ft | 207 kts | 82° |
| 2026-05-07 21:39 | 23.65649 | 90.48641 | 1877 ft | 197 kts | 46° |
| 2026-05-07 21:39 | 23.66689 | 90.49619 | 1871 ft | 197 kts | 35° |
| 2026-05-07 21:39 | 23.67918 | 90.50245 | 1879 ft | 194 kts | 16° |
| 2026-05-07 21:40 | 23.69233 | 90.50355 | 1871 ft | 189 kts | 353° |
| 2026-05-07 21:40 | 23.70511 | 90.50172 | 1852 ft | 187 kts | 359° |
| 2026-05-07 21:40 | 23.71816 | 90.50112 | 1860 ft | 190 kts | 342° |
| 2026-05-07 21:40 | 23.72837 | 90.49285 | 1903 ft | 183 kts | 314° |
| 2026-05-07 21:41 | 23.73796 | 90.48346 | 1876 ft | 186 kts | 321° |
| 2026-05-07 21:41 | 23.74809 | 90.47485 | 1867 ft | 183 kts | 322° |
| 2026-05-07 21:41 | 23.75807 | 90.46641 | 1855 ft | 179 kts | 322° |
| 2026-05-07 21:41 | 23.76797 | 90.45814 | 1808 ft | 182 kts | 323° |
| 2026-05-07 21:42 | 23.77824 | 90.44973 | 1420 ft | 180 kts | 323° |
| 2026-05-07 21:42 | 23.78806 | 90.44181 | 1114 ft | 169 kts | 323° |
| 2026-05-07 21:42 | 23.79737 | 90.43437 | 916 ft | 162 kts | 323° |
| 2026-05-07 21:42 | 23.80624 | 90.42731 | 693 ft | 155 kts | 324° |
| 2026-05-07 21:43 | 23.81492 | 90.42041 | 473 ft | 154 kts | 324° |
| 2026-05-07 21:43 | 23.82365 | 90.41349 | 276 ft | 156 kts | 324° |
| 2026-05-07 21:43 | 23.83229 | 90.40661 | 84 ft | 156 kts | 324° |
| 2026-05-07 21:43 | 23.84050 | 90.40006 | 42 ft | 129 kts | 324° |
| 2026-05-07 21:44 | 23.84624 | 90.39549 | 42 ft | 75 kts | 324° |
| 2026-05-07 21:44 | 23.84893 | 90.39366 | 42 ft | 27 kts | 340° |
| 2026-05-07 21:44 | 23.85063 | 90.39335 | 40 ft | 19 kts | 357° |
| 2026-05-07 21:44 | 23.85194 | 90.39358 | 40 ft | 19 kts | 20° |
| 2026-05-07 21:45 | 23.85295 | 90.39434 | 39 ft | 18 kts | 46° |
| 2026-05-07 21:45 | 23.85360 | 90.39532 | 40 ft | 12 kts | 54° |
| 2026-05-07 21:45 | 23.85417 | 90.39575 | 40 ft | 9 kts | 17° |
| 2026-05-07 21:45 | 23.85469 | 90.39616 | 40 ft | 9 kts | 51° |
| 2026-05-07 21:46 | 23.85508 | 90.39673 | 40 ft | 9 kts | 53° |
| 2026-05-07 21:46 | 23.85563 | 90.39697 | 40 ft | 8 kts | 332° |
| 2026-05-07 21:46 | 23.85573 | 90.39654 | 40 ft | 6 kts | 256° |
| 2026-05-07 21:46 | 23.85552 | 90.39617 | 40 ft | 6 kts | 234° |
| 2026-05-07 21:47 | 23.85544 | 90.39605 | 40 ft | 0 kts | 233° |